Ride Results

Watagan Mountains (25-04-2004)
Ride distance: 80.0 km

Outcomes - Watagan Mountains (25-04-2004)
Division No. of Entries Retired / DNE Completed Withdrawn Ineligible V/O Percentage Completed
HW 12 - 7 - - 5 58.33%
MW 40 - 27 2 - 11 67.50%
LW 22 - 12 - - 10 54.55%
JN 6 - 5 - - 1 83.33%
Totals 80 - 51 2 - 27 63.75%
Results - Watagan Mountains (25-04-2004)
No. Rider Horse Place Time Leg Speeds Total
Km/Hr
H/R bpm
Heavyweight
24 Rex Cox Bennalong Nile King 1 (BC) 6:06:00 15.0, 11.5 13.11 40, 46, 54 (Avg:50)
30 Raelene French Umayyed Silver Taye 2 6:20:00 13.4, 11.9 12.63 46, 45, 53 (Avg:49)
64 Allan Caslick Alandell Thor 3 7:21:00 10.5, 11.2 10.88 34, 43, 57 (Avg:50)
25 Denise Trollope Churinga Carrishka 4 7:57:00 10.2, 9.9 10.06 34, 45, 47 (Avg:46)
83 Alan Mackinder Sunland Silver Diamond 5 8:16:00 10.0, 9.3 9.68 37, 40, 44 (Avg:42)
18 Jennifer Hargraves Kaaren Azire Celebrity 6 8:25:00 10.2, 8.8 9.50 35, 40, 59 (Avg:49)
19 Lucas Mitchell Karadam 7 8:26:00 10.5, 8.6 9.49 39, 49, 59 (Avg:54)
79 Ian Dreghorn Rufus Heart Rate L2 0:00:00 9.1, 8.7 - 36, 44, 62 (Avg:53)
76 Marylou Locke Ally Lame L2 0:00:00 11.4, 8.3 - 37, 42, 48 (Avg:45)
28 Mark Sayer Mindari Aellusion Lame L2 0:00:00 13.4, 11.9 - 49, 40, 51 (Avg:45)
53 Peter Cole Coolahlee Park Anka Lame L1 0:00:00 16.2 - 32, 43 (Avg:43)
51 Frank Mollema Littlebanks Pot of Gold Lame L1 0:00:00 10.9 - 32, 53 (Avg:53)
Middleweight
34 Howard Harris Harmere Hariz 1 4:04:00 20.8, 18.6 19.67 37, 48, 49 (Avg:48)
74 Pamela McCabe Galleena Xenadora 2 4:12:00 18.1, 19.9 19.05 37, 41, 45 (Avg:43)
78 Mark Harvey Judstan Sharwayn 3 4:37:00 19.5, 15.5 17.33 40, 50, 55 (Avg:52)
27 Gail Fisher Just U Wait 4 (BC) 5:12:00 15.9, 14.8 15.38 35, 46, 54 (Avg:50)
4 Leanne Le Claire Aloha Kamahl 5 6:09:00 12.9, 13.1 13.01 32, 43, 51 (Avg:47)
39 Gillian Peirce Carmarthen Spirit 6 6:21:00 13.7, 11.6 12.60 35, 43, 53 (Avg:48)
12 Megan Edey Credo Montana 7 6:45:00 12.9, 10.9 11.85 34, 43, 52 (Avg:47)
16 Peter Kelly Razorback Phoenix 8 7:03:00 12.0, 10.7 11.35 35, 49, 56 (Avg:52)
44 Katherin Schemann Rhaki 9 7:04:00 11.3, 11.2 11.32 34, 48, 47 (Avg:47)
31 Denise Milton Linden Johar 10 7:05:00 12.0, 10.6 11.29 40, 50, 48 (Avg:49)
72 Tracy Wellings Chojen Star 11 7:06:00 11.5, 11.0 11.27 36, 43, 51 (Avg:47)
47 Claudia Reid Torryburn Nazik 12 7:21:00 11.3, 10.4 10.88 34, 40, 48 (Avg:44)
56 Margot Shore Arnie 13 7:42:00 12.0, 9.1 10.39 31, 39, 55 (Avg:47)
10 Michael Boland Tarkhim Shar Sheikara 14 7:50:00 10.2, 10.1 10.21 32, 38, 47 (Avg:42)
11 Margaret Boland River Oak Cody 14 7:50:00 10.2, 10.1 10.21 38, 49, 57 (Avg:53)
37 April Bonham Diamond R Jack 16 7:56:00 10.3, 9.8 10.08 31, 38, 44 (Avg:41)
60 Luke Annetts Tommie 17 7:59:00 10.0, 9.9 10.02 34, 37, 43 (Avg:40)
41 Marty Gregson Aloha Kaiser 18 8:01:00 11.0, 9.0 9.98 32, 36, 41 (Avg:38)
40 Jennifer Rogers Aloha Ajal 18 8:01:00 11.5, 8.7 9.98 36, 54, 58 (Avg:56)
49 Geoff Hurt Kejome Komet 20 8:15:00 11.0, 8.6 9.70 29, 39, 45 (Avg:42)
81 Stacy Burke Sakkara's Silver Image 21 8:16:00 10.0, 9.3 9.68 35, 38, 45 (Avg:41)
82 Naomi Djuric Erin Park Troy 21 8:16:00 10.0, 9.3 9.68 40, 44, 51 (Avg:47)
2 Heinz Erni Greengrove Nureyev 21 8:16:00 10.2, 9.1 9.68 31, 40, 40 (Avg:40)
1 Bronwyn Monahan Mightyfire Ferozah 21 8:16:00 10.2, 9.1 9.68 33, 40, 51 (Avg:45)
77 Bob Locke Aratahnes Prelude 25 8:19:00 11.4, 8.3 9.62 30, 38, 42 (Avg:40)
43 Brian Rooney Babez Zeytun Viking 26 8:43:00 9.3, 9.0 9.18 49, 47, 52 (Avg:49)
54 Lyndell McGowan Alandell Palette 27 8:48:00 10.5, 7.9 9.09 31, 42, 44 (Avg:43)
55 Brodie Ashman A'Landell Shiraz Lame L2 0:00:00 10.1, 8.5 - 31, 41, 60 (Avg:50)
29 Jennifer Gilbertson Master Renaut (Ferrymaster at Webbs Creek) Lame L2 0:00:00 13.7, 14.9 - 37, 36, 46 (Avg:41)
67 Ilona Hudson Seamus Widthdrawn L2 0:00:00 - - 36, 41, 40 (Avg:40)
32 Susan Luthy Highlands Abigal Lame L2 0:00:00 12.5, 10.8 - 30, 41, 51 (Avg:46)
58 Chris Pile Tallawarra Scoot Lame L2 0:00:00 11.9, 9.1 - 31, 40, 39 (Avg:39)
73 Clea Ralph Harmere Qadara Lame L2 0:00:00 18.1, 19.9 - 35, 38, 40 (Avg:39)
63 Ben Caslick Heste Arabique Waterloo Lame L1 0:00:00 9.0 - 43, 50 (Avg:50)
52 Dale Fitz-Gerald Leestton Tzakkar Lame L1 0:00:00 13.5 - 35, 43 (Avg:43)
80 Phillip Howarth Yardin Lame L1 0:00:00 17.1 - 43, 39 (Avg:39)
6 Renee Kirk Tallawarra Jazardis Widthdrawn L1 0:00:00 - - 33, 47 (Avg:47)
36 Fiona Meller Carmarthen Aurora Lame L1 0:00:00 13.7 - 32, 38 (Avg:38)
3 Katherine Sorensen Ropa Park Siray Lame L1 0:00:00 2.1 - 32, 0 (Avg:0)
5 Rosemary Stocks Shatari Lame P/R 0:00:00 - - 33
Lightweight
71 Deslee Jones Braw Breeze 1 (BC) 5:05:00 18.0, 13.9 15.74 35, 40, 44 (Avg:42)
33 Ruth Green Fairview Shaklas Bravado 2 6:09:00 13.7, 12.3 13.01 34, 44, 55 (Avg:49)
13 Claire Edey Cliveden Montsegur 3 6:45:00 12.9, 10.9 11.85 30, 33, 43 (Avg:38)
59 Katrina Bodewes Tallawarra Spy 4 7:42:00 11.9, 9.1 10.39 34, 50, 54 (Avg:52)
57 Liz McAuley Jindalee 4 7:42:00 12.0, 9.1 10.39 39, 50, 54 (Avg:52)
20 Julie Brooks Harmere Lahsa 6 7:49:00 11.3, 9.3 10.23 36, 42, 59 (Avg:50)
69 Janine Warner Rhiannons Nimbi 7 8:00:00 10.9, 9.2 10.00 41, 45, 60 (Avg:52)
26 Kathryn Crook Sherem Ceremel 8 8:05:00 9.9, 9.8 9.90 36, 50, 48 (Avg:49)
21 Jan Wade Rusky 8 8:05:00 9.9, 9.8 9.90 30, 37, 48 (Avg:42)
48 Janet Hurt Bella Park Brougham 10 8:15:00 11.0, 8.6 9.70 42, 40, 43 (Avg:41)
70 Johanna Yule Horse Rescue Yasmin 11 8:26:00 10.3, 8.7 9.49 35, 50, 52 (Avg:51)
62 Debbie Knight Ralvon Beth 12 8:56:00 8.8, 9.0 8.96 31, 54, 49 (Avg:51)
22 Melanie Anderson Jasmine Minstrel Lame L2 0:00:00 15.0, 11.5 - 32, 44, 54 (Avg:49)
14 Brad Dillon Ebonglen Holmegaard Lame L2 0:00:00 15.0, 14.0 - 30, 42, 48 (Avg:45)
46 Shan Symons Ningadoo Kaikoura Heart Rate L2 0:00:00 11.3, 10.4 - 32, 44, 62 (Avg:53)
17 Sue Todd Shabonne Lame L2 0:00:00 15.9, 10.9 - 30, 39, 47 (Avg:43)
9 Jacky Barlow Ed Lame L1 0:00:00 10.6 - 40, 39 (Avg:39)
38 Kim Hagon Gandari Alva Caasteele Lame L1 0:00:00 10.3 - 36, 43 (Avg:43)
8 Rhonda Locke Parlour Mountain Taipan Lame L1 0:00:00 14.9 - 39, 43 (Avg:43)
45 Emma McMurrich Amir Jasara Lame L1 0:00:00 10.5 - 38, 44 (Avg:44)
61 Peta Newton Anijoa Solomon Lame L1 0:00:00 8.8 - 34, 51 (Avg:51)
35 Nicole Dookwah Harmere Platinum Domino Lame P/R 0:00:00 - - 40
Junior
65 Shelley Jones Rise 'N' Shine 1 (BC) 5:12:00 15.5, 15.1 15.38 34, 42, 45 (Avg:43)
68 Brooke Warner Rhiannon''s Dakota 2 5:35:00 13.7, 14.9 14.33 33, 35, 46 (Avg:40)
42 Kurt Gregson Burren-dah Mileste 3 7:48:00 11.5, 9.2 10.26 40, 44, 52 (Avg:48)
75 Kathryn Johnson Ralvon Savero 4 7:59:00 10.0, 9.9 10.02 33, 50, 50 (Avg:50)
50 Stacey Booth-Mollema Santashka Allegra 5 8:00:00 10.9, 9.2 10.00 36, 44, 52 (Avg:48)
15 Wade Pritchard Ahmad Lame L2 0:00:00 15.0, 14.0 - 30, 42, 42 (Avg:42)